createdAt,value
2018-05-05T00:00:16.487Z,0.00
2018-05-05T00:01:16.593Z,0.00
2018-05-05T00:02:16.801Z,0.00
2018-05-05T00:03:16.960Z,0.00
2018-05-05T00:04:17.136Z,0.00
2018-05-05T00:05:17.320Z,0.00
2018-05-05T00:06:17.505Z,0.00
2018-05-05T00:07:17.696Z,0.00
2018-05-05T00:08:17.874Z,0.00
2018-05-05T00:09:18.060Z,0.00
2018-05-05T00:10:18.245Z,0.00
2018-05-05T00:11:18.418Z,0.00
2018-05-05T00:12:18.604Z,0.00
2018-05-05T00:13:18.791Z,0.00
2018-05-05T00:14:18.965Z,0.00
2018-05-05T00:15:19.148Z,0.00
2018-05-05T00:16:19.330Z,0.00
2018-05-05T00:17:19.518Z,0.00
2018-05-05T00:18:19.697Z,0.00
2018-05-05T00:19:19.875Z,0.00
2018-05-05T00:20:20.066Z,0.00
2018-05-05T00:21:20.246Z,0.00
2018-05-05T00:22:20.433Z,0.00
2018-05-05T00:23:20.609Z,0.00
2018-05-05T00:24:20.813Z,0.00
2018-05-05T00:25:20.991Z,0.00
2018-05-05T00:26:21.180Z,0.00
2018-05-05T00:27:21.353Z,0.00
2018-05-05T00:28:21.532Z,0.00
2018-05-05T00:29:21.712Z,0.00
2018-05-05T00:30:21.898Z,0.00
2018-05-05T00:31:22.075Z,0.00
2018-05-05T00:32:22.260Z,0.00
2018-05-05T00:33:22.434Z,0.00
2018-05-05T00:34:22.614Z,0.00
2018-05-05T00:35:22.783Z,0.00
2018-05-05T00:36:22.970Z,0.00
2018-05-05T00:37:23.150Z,0.00
2018-05-05T00:38:23.325Z,0.00
2018-05-05T00:39:23.496Z,0.00
2018-05-05T00:40:23.677Z,0.00
2018-05-05T00:41:23.848Z,0.00
2018-05-05T00:42:24.021Z,0.00
2018-05-05T00:43:24.197Z,0.00
2018-05-05T00:44:24.377Z,0.00
2018-05-05T00:45:24.564Z,0.00
2018-05-05T00:46:24.750Z,0.00
2018-05-05T00:47:24.929Z,0.00
2018-05-05T00:48:25.103Z,0.00
2018-05-05T00:49:25.299Z,0.00
2018-05-05T00:50:25.466Z,0.00
2018-05-05T00:51:25.640Z,0.00
2018-05-05T00:52:25.817Z,0.00
2018-05-05T00:53:25.994Z,0.00
2018-05-05T00:54:26.172Z,0.00
2018-05-05T00:55:26.361Z,0.00
2018-05-05T00:56:26.540Z,0.00
2018-05-05T00:57:26.716Z,0.00
2018-05-05T00:58:26.895Z,0.00
2018-05-05T00:59:27.071Z,0.00
2018-05-05T01:00:27.249Z,0.00
2018-05-05T01:01:27.426Z,0.00
2018-05-05T01:02:27.605Z,0.00
2018-05-05T01:03:27.795Z,0.00
2018-05-05T01:04:28.016Z,0.00
2018-05-05T01:05:28.171Z,0.00
2018-05-05T01:06:28.349Z,0.00
2018-05-05T01:07:28.543Z,0.00
2018-05-05T01:08:28.720Z,0.00
2018-05-05T01:09:28.943Z,0.00
2018-05-05T01:10:29.072Z,0.00
2018-05-05T01:11:29.254Z,0.00
2018-05-05T01:12:29.435Z,0.00
2018-05-05T01:13:29.620Z,0.00
2018-05-05T01:14:29.798Z,0.00
2018-05-05T01:15:29.982Z,0.00
2018-05-05T01:16:30.167Z,0.00
2018-05-05T01:17:30.351Z,0.00
2018-05-05T01:18:30.528Z,0.00
2018-05-05T01:19:30.708Z,0.00
2018-05-05T01:20:30.879Z,0.00
2018-05-05T01:21:31.075Z,0.00
2018-05-05T01:22:31.234Z,0.00
2018-05-05T01:23:31.416Z,0.00
2018-05-05T01:24:31.591Z,0.00
2018-05-05T01:25:31.770Z,0.00
2018-05-05T01:26:31.958Z,0.00
2018-05-05T01:27:32.143Z,0.00
2018-05-05T01:28:32.311Z,0.00
2018-05-05T01:29:32.489Z,0.00
2018-05-05T01:30:32.662Z,0.00
2018-05-05T01:31:32.835Z,0.00
2018-05-05T01:32:33.019Z,0.00
2018-05-05T01:33:33.192Z,0.00
2018-05-05T01:34:33.370Z,0.00
2018-05-05T01:35:33.558Z,0.00
2018-05-05T01:36:33.737Z,0.00
2018-05-05T01:37:33.919Z,0.00
2018-05-05T01:38:34.096Z,0.00
2018-05-05T01:39:34.285Z,0.00
2018-05-05T01:40:34.465Z,0.00
2018-05-05T01:41:34.655Z,0.00
2018-05-05T01:42:34.834Z,0.00
2018-05-05T01:43:35.015Z,0.00
2018-05-05T01:44:35.201Z,0.00
2018-05-05T01:45:35.377Z,0.00
2018-05-05T01:46:35.559Z,0.00
2018-05-05T01:47:35.742Z,0.00
2018-05-05T01:48:35.926Z,0.00
2018-05-05T01:49:36.115Z,0.00
2018-05-05T01:50:36.299Z,0.00
2018-05-05T01:51:36.475Z,0.00
2018-05-05T01:52:36.658Z,0.00
2018-05-05T01:53:36.830Z,0.00
2018-05-05T01:54:37.011Z,0.00
2018-05-05T01:55:37.187Z,0.00
2018-05-05T01:56:37.364Z,0.00
2018-05-05T01:57:37.549Z,0.00
2018-05-05T01:58:37.737Z,0.00
2018-05-05T01:59:37.917Z,0.00
2018-05-05T02:00:38.102Z,0.00
2018-05-05T02:01:38.276Z,0.00
2018-05-05T02:02:38.457Z,0.00
2018-05-05T02:03:38.642Z,0.00
2018-05-05T02:04:38.823Z,0.00
2018-05-05T02:05:38.995Z,0.00
2018-05-05T02:06:39.174Z,0.00
2018-05-05T02:07:39.361Z,0.00
2018-05-05T02:08:39.532Z,0.00
2018-05-05T02:09:39.714Z,0.00
2018-05-05T02:10:39.893Z,0.00
2018-05-05T02:11:40.070Z,0.00
2018-05-05T02:12:40.246Z,0.00
2018-05-05T02:13:40.426Z,0.00
2018-05-05T02:14:40.599Z,0.00
2018-05-05T02:15:40.777Z,0.00
2018-05-05T02:16:40.962Z,0.00
2018-05-05T02:17:41.145Z,0.00
2018-05-05T02:18:41.323Z,0.00
2018-05-05T02:19:41.500Z,0.00
2018-05-05T02:20:41.704Z,0.00
2018-05-05T02:21:41.875Z,0.00
2018-05-05T02:22:42.055Z,0.00
2018-05-05T02:23:42.238Z,0.00
2018-05-05T02:24:42.434Z,0.00
2018-05-05T02:25:42.614Z,0.00
2018-05-05T02:26:42.785Z,0.00
2018-05-05T02:27:42.961Z,0.00
2018-05-05T02:28:43.152Z,0.00
2018-05-05T02:29:43.328Z,0.00
2018-05-05T02:30:43.509Z,0.00
2018-05-05T02:31:43.688Z,0.00
2018-05-05T02:32:43.873Z,0.00
2018-05-05T02:33:44.049Z,0.00
2018-05-05T02:34:44.224Z,0.00
2018-05-05T02:35:44.412Z,0.00
2018-05-05T02:36:44.607Z,0.00
2018-05-05T02:37:44.784Z,0.00
2018-05-05T02:38:44.970Z,0.00
2018-05-05T02:39:45.147Z,0.00
2018-05-05T02:40:45.327Z,0.00
2018-05-05T02:41:45.513Z,0.00
2018-05-05T02:42:45.690Z,0.00
2018-05-05T02:43:45.871Z,0.00
2018-05-05T02:44:46.055Z,0.00
2018-05-05T02:45:46.241Z,0.00
2018-05-05T02:46:46.420Z,0.00
2018-05-05T02:47:46.603Z,0.00
2018-05-05T02:48:46.781Z,0.00
2018-05-05T02:49:46.963Z,0.00
2018-05-05T02:50:47.145Z,0.00
2018-05-05T02:51:47.315Z,0.00
2018-05-05T02:52:47.490Z,0.00
2018-05-05T02:53:47.674Z,0.00
2018-05-05T02:54:47.851Z,0.00
2018-05-05T02:55:48.032Z,0.00
2018-05-05T02:56:48.213Z,0.00
2018-05-05T02:57:48.399Z,0.00
2018-05-05T02:58:48.580Z,0.00
2018-05-05T02:59:48.768Z,0.00
2018-05-05T03:00:48.952Z,0.00
2018-05-05T03:01:49.136Z,0.00
2018-05-05T03:02:49.321Z,0.00
2018-05-05T03:03:49.503Z,0.00
2018-05-05T03:04:49.677Z,0.00
2018-05-05T03:05:49.863Z,0.00
2018-05-05T03:06:50.046Z,0.00
2018-05-05T03:07:50.224Z,0.00
2018-05-05T03:08:50.399Z,0.00
2018-05-05T03:09:50.581Z,0.00
2018-05-05T03:10:50.753Z,0.00
2018-05-05T03:11:50.943Z,0.00
2018-05-05T03:12:51.129Z,0.00
2018-05-05T03:13:51.311Z,0.00
2018-05-05T03:14:51.501Z,4.00
2018-05-05T03:15:51.684Z,4.00
2018-05-05T03:16:51.869Z,4.00
2018-05-05T03:17:52.049Z,0.00
2018-05-05T03:18:52.246Z,4.00
2018-05-05T03:19:52.432Z,4.00
2018-05-05T03:20:52.600Z,4.00
2018-05-05T03:21:52.798Z,8.00
2018-05-05T03:22:52.985Z,4.00
2018-05-05T03:23:53.174Z,4.00
2018-05-05T03:24:53.354Z,8.00
2018-05-05T03:25:53.536Z,12.00
2018-05-05T03:26:53.758Z,12.00
2018-05-05T03:27:53.895Z,16.00
2018-05-05T03:28:54.082Z,16.00
2018-05-05T03:29:54.277Z,20.00
2018-05-05T03:30:54.451Z,20.00
2018-05-05T03:31:54.630Z,24.00
2018-05-05T03:32:54.802Z,28.00
2018-05-05T03:33:54.984Z,32.00
2018-05-05T03:34:55.161Z,36.00
2018-05-05T03:35:55.340Z,40.00
2018-05-05T03:36:55.518Z,44.00
2018-05-05T03:37:55.693Z,52.00
2018-05-05T03:38:55.877Z,56.00
2018-05-05T03:39:56.062Z,64.00
2018-05-05T03:40:56.238Z,68.00
2018-05-05T03:41:56.415Z,76.00
2018-05-05T03:42:56.597Z,84.00
2018-05-05T03:43:56.781Z,96.00
2018-05-05T03:44:56.977Z,108.00
2018-05-05T03:45:57.152Z,116.00
2018-05-05T03:46:57.331Z,128.00
2018-05-05T03:47:57.515Z,140.00
2018-05-05T03:48:57.686Z,152.00
2018-05-05T03:49:57.869Z,164.00
2018-05-05T03:50:58.053Z,180.00
2018-05-05T03:51:58.231Z,196.00
2018-05-05T03:52:58.410Z,212.00
2018-05-05T03:53:58.591Z,228.00
2018-05-05T03:54:58.771Z,244.00
2018-05-05T03:55:58.959Z,264.00
2018-05-05T03:56:59.127Z,280.00
2018-05-05T03:57:59.307Z,300.00
2018-05-05T03:58:59.499Z,324.00
2018-05-05T03:59:59.679Z,344.00
2018-05-05T04:00:59.854Z,364.00
2018-05-05T04:02:00.048Z,392.00
2018-05-05T04:03:00.244Z,412.00
2018-05-05T04:04:00.431Z,440.00
2018-05-05T04:05:00.617Z,464.00
2018-05-05T04:06:00.795Z,488.00
2018-05-05T04:07:00.996Z,516.00
2018-05-05T04:08:01.181Z,544.00
2018-05-05T04:09:01.501Z,572.00
2018-05-05T04:10:01.513Z,596.00
2018-05-05T04:11:01.701Z,628.00
2018-05-05T04:12:01.891Z,656.00
2018-05-05T04:13:02.101Z,684.00
2018-05-05T04:14:02.281Z,712.00
2018-05-05T04:15:02.460Z,744.00
2018-05-05T04:16:02.636Z,772.00
2018-05-05T04:17:02.829Z,804.00
2018-05-05T04:18:03.025Z,836.00
2018-05-05T04:19:03.201Z,868.00
2018-05-05T04:20:03.380Z,900.00
2018-05-05T04:21:03.559Z,932.00
2018-05-05T04:22:03.733Z,960.00
2018-05-05T04:23:03.923Z,992.00
2018-05-05T04:24:04.098Z,1024.00
2018-05-05T04:25:04.319Z,1056.00
2018-05-05T04:26:04.452Z,1088.00
2018-05-05T04:27:04.641Z,1120.00
2018-05-05T04:28:04.832Z,1152.00
2018-05-05T04:29:05.011Z,1184.00
2018-05-05T04:30:05.189Z,1216.00
2018-05-05T04:31:05.423Z,1252.00
2018-05-05T04:32:05.491Z,1284.00
2018-05-05T04:33:06.687Z,1316.00
2018-05-05T04:34:10.579Z,1352.00
2018-05-05T04:35:07.998Z,1384.00
2018-05-05T04:36:07.440Z,1424.00
2018-05-05T04:37:06.294Z,1456.00
2018-05-05T04:38:06.478Z,1488.00
2018-05-05T04:39:06.653Z,1520.00
2018-05-05T04:40:06.821Z,1552.00
2018-05-05T04:41:06.995Z,1588.00
2018-05-05T04:42:07.224Z,1624.00
2018-05-05T04:43:07.284Z,1656.00
2018-05-05T04:44:07.455Z,1688.00
2018-05-05T04:45:07.639Z,1720.00
2018-05-05T04:46:07.817Z,1752.00
2018-05-05T04:47:07.996Z,1784.00
2018-05-05T04:48:08.177Z,1820.00
2018-05-05T04:49:08.353Z,1852.00
2018-05-05T04:50:08.530Z,1888.00
2018-05-05T04:51:08.763Z,1924.00
2018-05-05T04:52:08.814Z,1960.00
2018-05-05T04:53:08.988Z,2000.00
2018-05-05T04:54:09.164Z,2036.00
2018-05-05T04:55:09.342Z,2084.00
2018-05-05T04:56:09.520Z,2120.00
2018-05-05T04:57:09.700Z,2156.00
2018-05-05T04:58:09.879Z,2192.00
2018-05-05T04:59:10.067Z,2232.00
2018-05-05T05:00:10.245Z,2272.00
2018-05-05T05:01:10.424Z,2316.00
2018-05-05T05:02:10.600Z,2364.00
2018-05-05T05:03:10.796Z,2416.00
2018-05-05T05:04:10.974Z,2472.00
2018-05-05T05:05:11.212Z,2524.00
2018-05-05T05:06:11.337Z,2584.00
2018-05-05T05:07:11.513Z,2632.00
2018-05-05T05:08:11.692Z,2684.00
2018-05-05T05:09:11.874Z,2736.00
2018-05-05T05:10:12.061Z,2780.00
2018-05-05T05:11:12.243Z,2828.00
2018-05-05T05:12:12.423Z,2872.00
2018-05-05T05:13:12.612Z,2916.00
2018-05-05T05:14:12.793Z,2960.00
2018-05-05T05:15:12.972Z,3012.00
2018-05-05T05:16:13.157Z,3056.00
2018-05-05T05:17:13.353Z,3104.00
2018-05-05T05:18:13.538Z,3144.00
2018-05-05T05:19:13.720Z,3184.00
2018-05-05T05:20:13.906Z,3224.00
2018-05-05T05:21:14.093Z,3264.00
2018-05-05T05:22:14.268Z,3308.00
2018-05-05T05:23:14.462Z,3348.00
2018-05-05T05:24:14.652Z,3400.00
2018-05-05T05:25:14.820Z,3444.00
2018-05-05T05:26:14.999Z,3492.00
2018-05-05T05:27:15.181Z,3548.00
2018-05-05T05:28:15.374Z,3596.00
2018-05-05T05:29:15.564Z,3652.00
2018-05-05T05:30:15.742Z,3704.00
2018-05-05T05:31:15.917Z,3756.00
2018-05-05T05:32:16.106Z,3808.00
2018-05-05T05:33:16.284Z,3868.00
2018-05-05T05:34:16.469Z,3932.00
2018-05-05T05:35:16.641Z,3988.00
2018-05-05T05:36:16.816Z,4048.00
2018-05-05T05:37:16.992Z,4108.00
2018-05-05T05:38:17.177Z,4168.00
2018-05-05T05:39:17.361Z,4228.00
2018-05-05T05:40:17.549Z,4292.00
2018-05-05T05:41:17.744Z,4364.00
2018-05-05T05:42:17.920Z,4432.00
2018-05-05T05:43:18.101Z,4512.00
2018-05-05T05:44:18.279Z,4588.00
2018-05-05T05:45:18.456Z,4680.00
2018-05-05T05:46:18.641Z,4764.00
2018-05-05T05:47:18.825Z,4860.00
2018-05-05T05:48:19.003Z,4956.00
2018-05-05T05:49:19.190Z,5068.00
2018-05-05T05:50:19.384Z,5176.00
2018-05-05T05:51:19.566Z,5384.00
2018-05-05T05:52:19.767Z,14252.00
2018-05-05T05:53:19.920Z,58688.00
2018-05-05T05:54:20.097Z,87936.00
2018-05-05T05:55:20.273Z,85984.00
2018-05-05T05:56:20.453Z,84192.00
2018-05-05T05:57:20.733Z,84320.00
2018-05-05T05:58:20.784Z,84960.00
2018-05-05T05:59:20.965Z,87424.00
2018-05-05T06:00:21.149Z,89408.00
2018-05-05T06:01:21.322Z,89280.00
2018-05-05T06:02:21.505Z,87904.00
2018-05-05T06:03:21.713Z,86496.00
2018-05-05T06:04:21.868Z,88416.00
2018-05-05T06:05:22.054Z,87520.00
2018-05-05T06:06:22.226Z,87808.00
2018-05-05T06:07:22.414Z,90240.00
2018-05-05T06:08:22.597Z,91968.00
2018-05-05T06:09:22.789Z,91328.00
2018-05-05T06:10:22.973Z,90048.00
2018-05-05T06:11:23.159Z,89824.00
2018-05-05T06:12:23.347Z,92064.00
2018-05-05T06:13:23.528Z,93280.00
2018-05-05T06:14:23.716Z,93280.00
2018-05-05T06:15:23.908Z,92768.00
2018-05-05T06:16:24.096Z,91616.00
2018-05-05T06:17:24.281Z,92480.00
2018-05-05T06:18:24.465Z,94144.00
2018-05-05T06:19:24.644Z,96704.00
2018-05-05T06:20:24.830Z,96544.00
2018-05-05T06:21:25.029Z,95392.00
2018-05-05T06:22:25.208Z,95648.00
2018-05-05T06:23:25.398Z,95904.00
2018-05-05T06:24:25.660Z,95136.00
2018-05-05T06:25:25.761Z,93632.00
2018-05-05T06:26:25.950Z,94528.00
2018-05-05T06:27:26.301Z,95040.00
2018-05-05T06:28:26.499Z,95200.00
2018-05-05T06:29:26.562Z,95904.00
2018-05-05T06:30:26.773Z,96672.00
2018-05-05T06:31:26.972Z,97120.00
2018-05-05T06:32:27.155Z,97824.00
2018-05-05T06:33:27.356Z,97824.00
2018-05-05T06:34:27.549Z,96992.00
2018-05-05T06:35:27.741Z,97056.00
2018-05-05T06:36:27.940Z,97888.00
2018-05-05T06:37:28.131Z,97504.00
2018-05-05T06:38:28.320Z,97216.00
2018-05-05T06:39:28.516Z,96896.00
2018-05-05T06:40:28.705Z,97440.00
2018-05-05T06:41:28.893Z,97312.00
2018-05-05T06:42:29.090Z,98240.00
2018-05-05T06:43:29.304Z,100672.00
2018-05-05T06:44:29.477Z,99808.00
2018-05-05T06:45:29.676Z,98592.00
2018-05-05T06:46:29.861Z,98752.00
2018-05-05T06:47:30.046Z,98848.00
2018-05-05T06:48:30.228Z,99872.00
2018-05-05T06:49:30.478Z,100512.00
2018-05-05T06:50:30.550Z,100768.00
2018-05-05T06:51:30.904Z,100032.00
2018-05-05T06:52:30.976Z,99360.00
2018-05-05T06:53:31.161Z,99392.00
2018-05-05T06:54:31.340Z,100192.00
2018-05-05T06:55:31.531Z,100960.00
2018-05-05T06:56:33.081Z,100672.00
2018-05-05T06:57:32.080Z,101920.00
2018-05-05T06:58:32.337Z,102752.00
2018-05-05T06:59:32.967Z,101568.00
2018-05-05T07:00:32.401Z,102560.00
2018-05-05T07:01:32.701Z,99936.00
2018-05-05T07:02:32.771Z,98944.00
2018-05-05T07:03:32.954Z,101024.00
2018-05-05T07:04:33.146Z,103584.00
2018-05-05T07:05:33.332Z,104480.00
2018-05-05T07:06:33.602Z,104544.00
2018-05-05T07:07:33.689Z,104992.00
2018-05-05T07:08:33.859Z,105120.00
2018-05-05T07:09:34.056Z,104928.00
2018-05-05T07:10:34.240Z,103360.00
2018-05-05T07:11:34.434Z,102464.00
2018-05-05T07:12:34.673Z,102752.00
2018-05-05T07:13:34.944Z,104096.00
2018-05-05T07:14:34.902Z,104448.00
2018-05-05T07:15:35.098Z,103840.00
2018-05-05T07:16:35.294Z,101920.00
2018-05-05T07:17:35.581Z,103680.00
2018-05-05T07:18:35.666Z,105216.00
2018-05-05T07:19:35.861Z,105344.00
2018-05-05T07:20:36.050Z,105408.00
2018-05-05T07:21:36.262Z,103136.00
2018-05-05T07:22:36.446Z,102784.00
2018-05-05T07:23:36.638Z,101952.00
2018-05-05T07:24:36.825Z,103232.00
2018-05-05T07:25:37.018Z,106016.00
2018-05-05T07:26:37.211Z,105888.00
2018-05-05T07:27:37.404Z,105248.00
2018-05-05T07:28:37.610Z,106848.00
2018-05-05T07:29:37.806Z,107040.00
2018-05-05T07:30:37.998Z,108864.00
2018-05-05T07:31:38.227Z,107072.00
2018-05-05T07:32:38.484Z,106112.00
2018-05-05T07:33:38.737Z,105344.00
2018-05-05T07:34:38.780Z,106112.00
2018-05-05T07:35:38.970Z,105824.00
2018-05-05T07:36:39.174Z,105952.00
2018-05-05T07:37:39.375Z,105024.00
2018-05-05T07:38:39.559Z,104704.00
2018-05-05T07:39:39.756Z,104480.00
2018-05-05T07:40:39.948Z,106464.00
2018-05-05T07:41:40.134Z,105760.00
2018-05-05T07:42:40.346Z,107520.00
2018-05-05T07:43:40.551Z,106400.00
2018-05-05T07:44:40.748Z,106688.00
2018-05-05T07:45:40.939Z,104672.00
2018-05-05T07:46:41.135Z,102976.00
2018-05-05T07:47:41.322Z,103904.00
2018-05-05T07:48:41.526Z,104096.00
2018-05-05T07:49:41.710Z,105312.00
2018-05-05T07:50:41.908Z,106720.00
2018-05-05T07:51:42.087Z,104448.00
2018-05-05T07:52:42.291Z,102144.00
2018-05-05T07:53:42.697Z,102176.00
2018-05-05T07:54:42.638Z,105152.00
2018-05-05T07:55:43.048Z,107200.00
2018-05-05T07:56:43.014Z,105888.00
2018-05-05T07:57:43.269Z,105472.00
2018-05-05T07:58:43.319Z,105152.00
2018-05-05T07:59:43.515Z,106624.00
2018-05-05T08:00:43.841Z,102528.00
2018-05-05T08:01:43.940Z,103168.00
2018-05-05T08:02:44.120Z,103904.00
2018-05-05T08:03:44.431Z,103712.00
2018-05-05T08:04:44.514Z,105792.00
2018-05-05T08:05:44.731Z,104896.00
2018-05-05T08:06:44.919Z,101408.00
2018-05-05T08:07:45.137Z,96288.00
2018-05-05T08:08:45.334Z,98144.00
2018-05-05T08:09:45.954Z,99712.00
2018-05-05T08:10:45.656Z,100672.00
2018-05-05T08:11:45.855Z,102880.00
2018-05-05T08:12:46.296Z,100736.00
2018-05-05T08:13:46.251Z,100544.00
2018-05-05T08:14:46.444Z,100608.00
2018-05-05T08:15:46.794Z,99936.00
2018-05-05T08:16:46.953Z,98528.00
2018-05-05T08:17:47.026Z,99840.00
2018-05-05T08:18:47.216Z,98624.00
2018-05-05T08:19:47.428Z,101440.00
2018-05-05T08:20:47.622Z,100480.00
2018-05-05T08:21:47.810Z,103008.00
2018-05-05T08:22:48.034Z,104000.00
2018-05-05T08:23:48.209Z,101920.00
2018-05-05T08:24:48.408Z,101376.00
2018-05-05T08:25:48.763Z,100896.00
2018-05-05T08:26:48.831Z,104320.00
2018-05-05T08:27:49.123Z,101056.00
2018-05-05T08:28:49.279Z,99200.00
2018-05-05T08:29:49.490Z,103040.00
2018-05-05T08:30:49.703Z,103488.00
2018-05-05T08:31:50.171Z,102976.00
2018-05-05T08:32:50.517Z,99680.00
2018-05-05T08:33:53.060Z,96640.00
2018-05-05T08:34:50.503Z,97088.00
2018-05-05T08:35:50.581Z,100640.00
2018-05-05T08:36:50.790Z,99808.00
2018-05-05T08:37:51.345Z,101152.00
2018-05-05T08:38:51.141Z,100480.00
2018-05-05T08:39:51.330Z,99904.00
2018-05-05T08:40:51.544Z,101728.00
2018-05-05T08:41:51.738Z,104192.00
2018-05-05T08:42:51.937Z,102912.00
2018-05-05T08:43:52.149Z,100064.00
2018-05-05T08:44:52.340Z,98368.00
2018-05-05T08:45:52.569Z,97248.00
2018-05-05T08:46:52.852Z,98048.00
2018-05-05T08:47:53.056Z,95744.00
2018-05-05T08:48:53.144Z,96192.00
2018-05-05T08:49:53.351Z,96288.00
2018-05-05T08:50:53.567Z,97600.00
2018-05-05T08:51:53.775Z,98880.00
2018-05-05T08:52:53.974Z,98720.00
2018-05-05T08:53:54.177Z,99040.00
2018-05-05T08:54:54.393Z,98080.00
2018-05-05T08:55:54.584Z,96480.00
2018-05-05T08:56:54.778Z,96928.00
2018-05-05T08:57:54.976Z,96928.00
2018-05-05T08:58:55.186Z,98720.00
2018-05-05T08:59:55.393Z,96672.00
2018-05-05T09:00:55.897Z,94880.00
2018-05-05T09:01:55.714Z,94720.00
2018-05-05T09:02:55.920Z,94496.00
2018-05-05T09:03:56.121Z,94624.00
2018-05-05T09:04:56.348Z,96288.00
2018-05-05T09:05:56.888Z,95168.00
2018-05-05T09:06:56.811Z,94816.00
2018-05-05T09:07:57.057Z,91232.00
2018-05-05T09:08:57.132Z,89984.00
2018-05-05T09:09:57.417Z,90048.00
2018-05-05T09:10:57.495Z,89600.00
2018-05-05T09:11:57.717Z,87744.00
2018-05-05T09:12:57.984Z,86912.00
2018-05-05T09:13:58.141Z,86048.00
2018-05-05T09:14:58.339Z,86528.00
2018-05-05T09:15:58.634Z,87680.00
2018-05-05T09:16:58.765Z,88160.00
2018-05-05T09:17:59.037Z,87200.00
2018-05-05T09:18:58.879Z,87584.00
2018-05-05T09:19:59.135Z,86048.00
2018-05-05T09:20:59.249Z,78816.00
2018-05-05T09:21:59.413Z,63712.00
2018-05-05T09:22:59.771Z,47328.00
2018-05-05T09:24:00.003Z,35872.00
2018-05-05T09:25:00.181Z,31424.00
2018-05-05T09:26:00.234Z,30912.00
2018-05-05T09:27:00.293Z,30784.00
2018-05-05T09:28:00.600Z,30464.00
2018-05-05T09:29:00.684Z,29856.00
2018-05-05T09:30:00.987Z,29504.00
2018-05-05T09:31:01.101Z,29152.00
2018-05-05T09:32:01.326Z,29280.00
2018-05-05T09:33:01.509Z,29248.00
2018-05-05T09:34:01.833Z,28832.00
2018-05-05T09:35:01.878Z,27680.00
2018-05-05T09:36:02.073Z,28160.00
2018-05-05T09:37:02.281Z,27488.00
2018-05-05T09:38:02.500Z,27584.00
2018-05-05T09:39:02.833Z,27264.00
2018-05-05T09:40:02.919Z,27200.00
2018-05-05T09:41:03.164Z,27232.00
2018-05-05T09:42:03.511Z,26912.00
2018-05-05T09:43:03.562Z,27040.00
2018-05-05T09:44:03.814Z,26880.00
2018-05-05T09:45:03.883Z,26528.00
2018-05-05T09:46:05.126Z,26592.00
2018-05-05T09:47:04.435Z,27008.00
2018-05-05T09:48:05.766Z,27520.00
2018-05-05T09:49:04.878Z,28608.00
2018-05-05T09:50:04.877Z,29760.00
2018-05-05T09:51:04.880Z,30880.00
2018-05-05T09:52:05.130Z,32320.00
2018-05-05T09:53:05.317Z,34144.00
2018-05-05T09:54:05.519Z,38592.00
2018-05-05T09:55:05.711Z,51072.00
2018-05-05T09:56:05.945Z,63776.00
2018-05-05T09:57:06.176Z,71424.00
2018-05-05T09:58:06.363Z,71360.00
2018-05-05T09:59:07.086Z,65600.00
2018-05-05T10:00:07.657Z,64128.00
2018-05-05T10:01:06.836Z,64160.00
2018-05-05T10:02:07.024Z,60832.00
2018-05-05T10:03:07.198Z,53920.00
2018-05-05T10:04:07.463Z,44640.00
2018-05-05T10:05:07.801Z,39552.00
2018-05-05T10:06:07.746Z,39488.00
2018-05-05T10:07:07.952Z,39680.00
2018-05-05T10:08:08.174Z,38112.00
2018-05-05T10:09:08.364Z,36032.00
2018-05-05T10:10:08.569Z,35232.00
2018-05-05T10:11:08.776Z,34912.00
2018-05-05T10:12:08.975Z,36032.00
2018-05-05T10:13:09.177Z,34848.00
2018-05-05T10:14:09.365Z,34976.00
2018-05-05T10:15:09.562Z,34752.00
2018-05-05T10:16:09.751Z,33984.00
2018-05-05T10:17:09.943Z,34016.00
2018-05-05T10:18:10.214Z,32864.00
2018-05-05T10:19:10.282Z,32704.00
2018-05-05T10:20:10.480Z,28672.00
2018-05-05T10:21:10.700Z,20800.00
2018-05-05T10:22:10.874Z,12852.00
2018-05-05T10:23:11.069Z,10056.00
2018-05-05T10:24:11.265Z,9324.00
2018-05-05T10:25:11.463Z,9028.00
2018-05-05T10:26:11.725Z,8916.00
2018-05-05T10:27:11.846Z,8840.00
2018-05-05T10:28:12.048Z,8812.00
2018-05-05T10:29:12.274Z,8736.00
2018-05-05T10:30:12.463Z,8668.00
2018-05-05T10:31:12.648Z,8620.00
2018-05-05T10:32:12.837Z,8636.00
2018-05-05T10:33:13.125Z,8640.00
2018-05-05T10:34:13.190Z,8600.00
2018-05-05T10:35:13.414Z,8528.00
2018-05-05T10:36:13.580Z,8404.00
2018-05-05T10:37:13.783Z,8260.00
2018-05-05T10:38:13.982Z,8064.00
2018-05-05T10:39:14.195Z,7832.00
2018-05-05T10:40:14.362Z,7644.00
2018-05-05T10:41:14.553Z,7260.00
2018-05-05T10:42:15.549Z,7112.00
2018-05-05T10:43:14.915Z,6640.00
2018-05-05T10:44:15.068Z,6180.00
2018-05-05T10:45:15.255Z,6000.00
2018-05-05T10:46:15.439Z,5740.00
2018-05-05T10:47:15.630Z,5304.00
2018-05-05T10:48:15.834Z,5048.00
2018-05-05T10:49:16.027Z,4780.00
2018-05-05T10:50:16.250Z,4716.00
2018-05-05T10:51:16.464Z,4648.00
2018-05-05T10:52:16.664Z,4628.00
2018-05-05T10:53:16.827Z,4644.00
2018-05-05T10:54:17.010Z,4596.00
2018-05-05T10:55:17.198Z,4544.00
2018-05-05T10:56:17.384Z,4552.00
2018-05-05T10:57:17.579Z,4484.00
2018-05-05T10:58:17.761Z,4444.00
2018-05-05T10:59:17.948Z,4388.00
2018-05-05T11:00:18.135Z,4344.00
2018-05-05T11:01:18.429Z,4312.00
2018-05-05T11:02:18.538Z,4280.00
2018-05-05T11:03:18.751Z,4240.00
2018-05-05T11:04:18.930Z,4212.00
2018-05-05T11:05:19.125Z,4160.00
2018-05-05T11:06:19.312Z,4112.00
2018-05-05T11:07:19.505Z,4076.00
2018-05-05T11:08:19.790Z,4068.00
2018-05-05T11:09:19.893Z,4056.00
2018-05-05T11:10:20.103Z,4044.00
2018-05-05T11:11:21.100Z,4048.00
2018-05-05T11:12:20.419Z,4048.00
2018-05-05T11:13:20.599Z,4012.00
2018-05-05T11:14:20.795Z,4004.00
2018-05-05T11:15:20.968Z,3964.00
2018-05-05T11:16:21.231Z,3948.00
2018-05-05T11:17:21.363Z,3988.00
2018-05-05T11:18:21.614Z,3976.00
2018-05-05T11:19:21.693Z,3956.00
2018-05-05T11:20:21.863Z,4012.00
2018-05-05T11:21:22.052Z,4092.00
2018-05-05T11:22:22.305Z,4148.00
2018-05-05T11:23:25.517Z,4176.00
2018-05-05T11:24:22.531Z,4172.00
2018-05-05T11:25:22.729Z,4104.00
2018-05-05T11:26:22.916Z,4112.00
2018-05-05T11:27:23.100Z,4104.00
2018-05-05T11:28:23.315Z,4064.00
2018-05-05T11:29:23.483Z,4056.00
2018-05-05T11:30:23.699Z,4048.00
2018-05-05T11:31:23.891Z,4028.00
2018-05-05T11:32:26.882Z,3996.00
2018-05-05T11:33:24.558Z,3972.00
2018-05-05T11:34:24.987Z,3940.00
2018-05-05T11:35:25.143Z,3912.00
2018-05-05T11:36:26.213Z,3860.00
2018-05-05T11:37:25.218Z,3812.00
2018-05-05T11:38:25.371Z,3768.00
2018-05-05T11:39:25.241Z,3716.00
2018-05-05T11:40:25.520Z,3624.00
2018-05-05T11:41:25.958Z,3616.00
2018-05-05T11:42:26.047Z,3568.00
2018-05-05T11:43:25.969Z,3512.00
2018-05-05T11:44:26.370Z,3472.00
2018-05-05T11:45:26.490Z,3424.00
2018-05-05T11:46:26.694Z,3396.00
2018-05-05T11:47:26.828Z,3356.00
2018-05-05T11:48:27.063Z,3312.00
2018-05-05T11:49:27.234Z,3284.00
2018-05-05T11:50:27.507Z,3272.00
2018-05-05T11:51:27.873Z,3228.00
2018-05-05T11:52:27.728Z,3184.00
2018-05-05T11:53:27.795Z,3128.00
2018-05-05T11:54:27.976Z,3092.00
2018-05-05T11:55:28.207Z,3072.00
2018-05-05T11:56:28.484Z,3048.00
2018-05-05T11:57:28.575Z,3032.00
2018-05-05T11:58:28.814Z,3012.00
2018-05-05T11:59:28.934Z,2996.00
2018-05-05T12:00:29.327Z,2964.00
2018-05-05T12:01:29.138Z,2944.00
2018-05-05T12:02:29.328Z,2920.00
2018-05-05T12:03:29.551Z,2892.00
2018-05-05T12:04:29.762Z,2860.00
2018-05-05T12:05:29.941Z,2840.00
2018-05-05T12:06:30.140Z,2808.00
2018-05-05T12:07:30.328Z,2788.00
2018-05-05T12:08:30.511Z,2768.00
2018-05-05T12:09:30.697Z,2760.00
2018-05-05T12:10:30.892Z,2736.00
2018-05-05T12:11:31.074Z,2724.00
2018-05-05T12:12:31.262Z,2712.00
2018-05-05T12:13:31.447Z,2700.00
2018-05-05T12:14:31.635Z,2680.00
2018-05-05T12:15:31.823Z,2660.00
2018-05-05T12:16:32.012Z,2636.00
2018-05-05T12:17:32.198Z,2628.00